sensor_id;sensor_type;location;lat;lon;timestamp;temperature;humidity
46041;DHT22;31779;49.124;19.190;2022-12-07T00:01:37;1.40;99.90
46041;DHT22;31779;49.124;19.190;2022-12-07T00:04:11;1.40;99.90
46041;DHT22;31779;49.124;19.190;2022-12-07T00:06:41;1.40;99.90
46041;DHT22;31779;49.124;19.190;2022-12-07T00:09:12;1.10;99.90
46041;DHT22;31779;49.124;19.190;2022-12-07T00:11:41;1.00;99.90
46041;DHT22;31779;49.124;19.190;2022-12-07T00:14:14;1.20;99.90
46041;DHT22;31779;49.124;19.190;2022-12-07T00:16:43;1.30;99.90
46041;DHT22;31779;49.124;19.190;2022-12-07T00:19:13;1.40;99.90
46041;DHT22;31779;49.124;19.190;2022-12-07T00:21:41;1.40;99.90
46041;DHT22;31779;49.124;19.190;2022-12-07T00:24:10;1.40;99.90
46041;DHT22;31779;49.124;19.190;2022-12-07T00:26:40;1.50;99.90
46041;DHT22;31779;49.124;19.190;2022-12-07T00:29:17;1.50;99.90
46041;DHT22;31779;49.124;19.190;2022-12-07T00:31:46;1.50;99.90
46041;DHT22;31779;49.124;19.190;2022-12-07T00:34:19;1.40;99.90
46041;DHT22;31779;49.124;19.190;2022-12-07T00:36:48;1.50;99.90
46041;DHT22;31779;49.124;19.190;2022-12-07T00:39:16;1.50;99.90
46041;DHT22;31779;49.124;19.190;2022-12-07T00:41:44;1.60;99.90
46041;DHT22;31779;49.124;19.190;2022-12-07T00:44:12;1.60;99.90
46041;DHT22;31779;49.124;19.190;2022-12-07T00:46:40;1.60;99.90
46041;DHT22;31779;49.124;19.190;2022-12-07T00:49:08;1.60;99.90
46041;DHT22;31779;49.124;19.190;2022-12-07T00:51:36;1.60;99.90
46041;DHT22;31779;49.124;19.190;2022-12-07T00:54:04;1.60;99.90
46041;DHT22;31779;49.124;19.190;2022-12-07T00:56:32;1.60;99.90
46041;DHT22;31779;49.124;19.190;2022-12-07T00:59:02;1.60;99.90
46041;DHT22;31779;49.124;19.190;2022-12-07T01:01:32;1.60;99.90
46041;DHT22;31779;49.124;19.190;2022-12-07T01:04:02;1.60;99.90
46041;DHT22;31779;49.124;19.190;2022-12-07T01:06:30;1.60;99.90
46041;DHT22;31779;49.124;19.190;2022-12-07T01:08:59;1.70;99.90
46041;DHT22;31779;49.124;19.190;2022-12-07T01:11:29;1.70;99.90
46041;DHT22;31779;49.124;19.190;2022-12-07T01:13:59;1.70;99.90
46041;DHT22;31779;49.124;19.190;2022-12-07T01:16:29;1.60;99.90
46041;DHT22;31779;49.124;19.190;2022-12-07T01:18:58;1.50;99.90
46041;DHT22;31779;49.124;19.190;2022-12-07T01:21:29;1.50;99.90
46041;DHT22;31779;49.124;19.190;2022-12-07T01:23:58;1.50;99.90
46041;DHT22;31779;49.124;19.190;2022-12-07T01:26:26;1.50;99.90
46041;DHT22;31779;49.124;19.190;2022-12-07T01:28:55;1.60;99.90
46041;DHT22;31779;49.124;19.190;2022-12-07T01:31:24;1.60;99.90
46041;DHT22;31779;49.124;19.190;2022-12-07T01:33:55;1.60;99.90
46041;DHT22;31779;49.124;19.190;2022-12-07T01:36:28;1.60;99.90
46041;DHT22;31779;49.124;19.190;2022-12-07T01:39:02;1.60;99.90
46041;DHT22;31779;49.124;19.190;2022-12-07T01:41:33;1.70;99.90
46041;DHT22;31779;49.124;19.190;2022-12-07T01:46:35;1.60;99.90
46041;DHT22;31779;49.124;19.190;2022-12-07T01:49:07;1.70;99.90
46041;DHT22;31779;49.124;19.190;2022-12-07T01:51:37;1.60;99.90
46041;DHT22;31779;49.124;19.190;2022-12-07T01:54:06;1.70;99.90
46041;DHT22;31779;49.124;19.190;2022-12-07T01:56:34;1.70;99.90
46041;DHT22;31779;49.124;19.190;2022-12-07T01:59:02;1.80;99.90
46041;DHT22;31779;49.124;19.190;2022-12-07T02:01:31;1.70;99.90
46041;DHT22;31779;49.124;19.190;2022-12-07T02:03:58;1.70;99.90
46041;DHT22;31779;49.124;19.190;2022-12-07T02:06:27;1.70;99.90
46041;DHT22;31779;49.124;19.190;2022-12-07T02:08:54;1.70;99.90
46041;DHT22;31779;49.124;19.190;2022-12-07T02:11:22;1.60;99.90
46041;DHT22;31779;49.124;19.190;2022-12-07T02:13:51;1.70;99.90
46041;DHT22;31779;49.124;19.190;2022-12-07T02:22:18;1.50;99.90
46041;DHT22;31779;49.124;19.190;2022-12-07T02:25:20;1.60;99.90
46041;DHT22;31779;49.124;19.190;2022-12-07T02:30:44;1.60;99.90
46041;DHT22;31779;49.124;19.190;2022-12-07T02:33:28;1.70;99.90
46041;DHT22;31779;49.124;19.190;2022-12-07T02:41:27;1.60;99.90
46041;DHT22;31779;49.124;19.190;2022-12-07T02:44:15;1.70;99.90
46041;DHT22;31779;49.124;19.190;2022-12-07T02:46:53;1.70;99.90
46041;DHT22;31779;49.124;19.190;2022-12-07T02:49:22;1.70;99.90
46041;DHT22;31779;49.124;19.190;2022-12-07T02:51:52;1.60;99.90
46041;DHT22;31779;49.124;19.190;2022-12-07T02:54:21;1.70;99.90
46041;DHT22;31779;49.124;19.190;2022-12-07T02:56:50;1.70;99.90
46041;DHT22;31779;49.124;19.190;2022-12-07T02:59:59;1.70;99.90
46041;DHT22;31779;49.124;19.190;2022-12-07T03:10:58;1.60;99.90
46041;DHT22;31779;49.124;19.190;2022-12-07T03:22:11;1.70;99.90
46041;DHT22;31779;49.124;19.190;2022-12-07T03:24:55;1.50;99.90
46041;DHT22;31779;49.124;19.190;2022-12-07T03:27:46;1.50;99.90
46041;DHT22;31779;49.124;19.190;2022-12-07T03:30:19;1.60;99.90
46041;DHT22;31779;49.124;19.190;2022-12-07T03:32:59;1.60;99.90
46041;DHT22;31779;49.124;19.190;2022-12-07T03:35:38;1.60;99.90
46041;DHT22;31779;49.124;19.190;2022-12-07T03:38:25;1.60;99.90
46041;DHT22;31779;49.124;19.190;2022-12-07T03:41:18;1.60;99.90
46041;DHT22;31779;49.124;19.190;2022-12-07T03:43:47;1.40;99.90
46041;DHT22;31779;49.124;19.190;2022-12-07T03:51:43;1.50;99.90
46041;DHT22;31779;49.124;19.190;2022-12-07T03:56:58;1.50;99.90
46041;DHT22;31779;49.124;19.190;2022-12-07T03:59:26;1.50;99.90
46041;DHT22;31779;49.124;19.190;2022-12-07T04:01:57;1.60;99.90
46041;DHT22;31779;49.124;19.190;2022-12-07T04:04:29;1.60;99.90
46041;DHT22;31779;49.124;19.190;2022-12-07T04:06:57;1.70;99.90
46041;DHT22;31779;49.124;19.190;2022-12-07T04:09:25;1.70;99.90
46041;DHT22;31779;49.124;19.190;2022-12-07T04:11:53;1.70;99.90
46041;DHT22;31779;49.124;19.190;2022-12-07T04:14:21;1.70;99.90
46041;DHT22;31779;49.124;19.190;2022-12-07T04:16:52;1.50;99.90
46041;DHT22;31779;49.124;19.190;2022-12-07T04:19:22;1.60;99.90
46041;DHT22;31779;49.124;19.190;2022-12-07T04:21:50;1.60;99.90
46041;DHT22;31779;49.124;19.190;2022-12-07T04:24:18;1.50;99.90
46041;DHT22;31779;49.124;19.190;2022-12-07T04:26:47;1.50;99.90
46041;DHT22;31779;49.124;19.190;2022-12-07T04:29:16;1.50;99.90
46041;DHT22;31779;49.124;19.190;2022-12-07T04:31:44;1.60;99.90
46041;DHT22;31779;49.124;19.190;2022-12-07T04:34:16;1.60;99.90
46041;DHT22;31779;49.124;19.190;2022-12-07T04:36:45;1.50;99.90
46041;DHT22;31779;49.124;19.190;2022-12-07T04:39:27;1.50;99.90
46041;DHT22;31779;49.124;19.190;2022-12-07T04:41:56;1.50;99.90
46041;DHT22;31779;49.124;19.190;2022-12-07T04:44:25;1.50;99.90
46041;DHT22;31779;49.124;19.190;2022-12-07T04:46:54;1.60;99.90
46041;DHT22;31779;49.124;19.190;2022-12-07T04:49:22;1.50;99.90
46041;DHT22;31779;49.124;19.190;2022-12-07T04:51:51;1.60;99.90
46041;DHT22;31779;49.124;19.190;2022-12-07T04:54:19;1.60;99.90
46041;DHT22;31779;49.124;19.190;2022-12-07T04:56:47;1.60;99.90
46041;DHT22;31779;49.124;19.190;2022-12-07T04:59:16;1.70;99.90
46041;DHT22;31779;49.124;19.190;2022-12-07T05:01:44;1.70;99.90
46041;DHT22;31779;49.124;19.190;2022-12-07T05:04:13;1.70;99.90
46041;DHT22;31779;49.124;19.190;2022-12-07T05:06:40;1.50;99.90
46041;DHT22;31779;49.124;19.190;2022-12-07T05:09:09;1.60;99.90
46041;DHT22;31779;49.124;19.190;2022-12-07T05:11:36;1.50;99.90
46041;DHT22;31779;49.124;19.190;2022-12-07T05:14:13;1.50;99.90
46041;DHT22;31779;49.124;19.190;2022-12-07T05:17:00;1.50;99.90
46041;DHT22;31779;49.124;19.190;2022-12-07T05:19:28;1.50;99.90
46041;DHT22;31779;49.124;19.190;2022-12-07T05:21:55;1.30;99.90
46041;DHT22;31779;49.124;19.190;2022-12-07T05:24:23;1.50;99.90
46041;DHT22;31779;49.124;19.190;2022-12-07T05:26:51;1.60;99.90
46041;DHT22;31779;49.124;19.190;2022-12-07T05:29:19;1.60;99.90
46041;DHT22;31779;49.124;19.190;2022-12-07T05:31:47;1.60;99.90
46041;DHT22;31779;49.124;19.190;2022-12-07T05:34:15;1.60;99.90
46041;DHT22;31779;49.124;19.190;2022-12-07T05:36:43;1.60;99.90
46041;DHT22;31779;49.124;19.190;2022-12-07T05:39:11;1.60;99.90
46041;DHT22;31779;49.124;19.190;2022-12-07T05:41:39;1.40;99.90
46041;DHT22;31779;49.124;19.190;2022-12-07T05:44:26;1.30;99.90
46041;DHT22;31779;49.124;19.190;2022-12-07T05:46:54;1.30;99.90
46041;DHT22;31779;49.124;19.190;2022-12-07T05:49:22;1.40;99.90
46041;DHT22;31779;49.124;19.190;2022-12-07T05:51:50;1.40;99.90
46041;DHT22;31779;49.124;19.190;2022-12-07T05:54:18;1.50;99.90
46041;DHT22;31779;49.124;19.190;2022-12-07T05:56:46;1.40;99.90
46041;DHT22;31779;49.124;19.190;2022-12-07T05:59:14;1.40;99.90
46041;DHT22;31779;49.124;19.190;2022-12-07T06:02:01;1.30;99.90
46041;DHT22;31779;49.124;19.190;2022-12-07T06:04:33;1.40;99.90
46041;DHT22;31779;49.124;19.190;2022-12-07T06:07:02;1.40;99.90
46041;DHT22;31779;49.124;19.190;2022-12-07T06:09:31;1.40;99.90
46041;DHT22;31779;49.124;19.190;2022-12-07T06:11:59;1.40;99.90
46041;DHT22;31779;49.124;19.190;2022-12-07T06:14:46;1.30;99.90
46041;DHT22;31779;49.124;19.190;2022-12-07T06:17:14;1.40;99.90
46041;DHT22;31779;49.124;19.190;2022-12-07T06:19:43;1.20;99.90
46041;DHT22;31779;49.124;19.190;2022-12-07T06:22:11;1.10;99.90
46041;DHT22;31779;49.124;19.190;2022-12-07T06:24:39;1.20;99.90
46041;DHT22;31779;49.124;19.190;2022-12-07T06:27:09;1.20;99.90
46041;DHT22;31779;49.124;19.190;2022-12-07T06:29:37;1.30;99.90
46041;DHT22;31779;49.124;19.190;2022-12-07T06:32:06;1.40;99.90
46041;DHT22;31779;49.124;19.190;2022-12-07T06:34:34;1.10;99.90
46041;DHT22;31779;49.124;19.190;2022-12-07T06:37:04;1.20;99.90
46041;DHT22;31779;49.124;19.190;2022-12-07T06:39:32;1.20;99.90
46041;DHT22;31779;49.124;19.190;2022-12-07T06:42:00;1.30;99.90
46041;DHT22;31779;49.124;19.190;2022-12-07T06:44:28;1.30;99.90
46041;DHT22;31779;49.124;19.190;2022-12-07T06:46:55;1.40;99.90
46041;DHT22;31779;49.124;19.190;2022-12-07T06:49:45;1.40;99.90
46041;DHT22;31779;49.124;19.190;2022-12-07T06:52:12;1.30;99.90
46041;DHT22;31779;49.124;19.190;2022-12-07T06:54:40;1.40;99.90
46041;DHT22;31779;49.124;19.190;2022-12-07T06:57:09;1.40;99.90
46041;DHT22;31779;49.124;19.190;2022-12-07T06:59:36;1.40;99.90
46041;DHT22;31779;49.124;19.190;2022-12-07T07:02:05;1.30;99.90
46041;DHT22;31779;49.124;19.190;2022-12-07T07:04:33;1.40;99.90
46041;DHT22;31779;49.124;19.190;2022-12-07T07:07:01;1.20;99.90
46041;DHT22;31779;49.124;19.190;2022-12-07T07:09:29;1.20;99.90
46041;DHT22;31779;49.124;19.190;2022-12-07T07:11:57;1.10;99.90
46041;DHT22;31779;49.124;19.190;2022-12-07T07:14:25;1.20;99.90
46041;DHT22;31779;49.124;19.190;2022-12-07T07:16:53;1.30;99.90
46041;DHT22;31779;49.124;19.190;2022-12-07T07:19:22;1.40;99.90
46041;DHT22;31779;49.124;19.190;2022-12-07T07:21:51;1.50;99.90
46041;DHT22;31779;49.124;19.190;2022-12-07T07:24:18;1.50;99.90
46041;DHT22;31779;49.124;19.190;2022-12-07T07:26:47;1.50;99.90
46041;DHT22;31779;49.124;19.190;2022-12-07T07:29:15;1.40;99.90
46041;DHT22;31779;49.124;19.190;2022-12-07T07:31:43;1.20;99.90
46041;DHT22;31779;49.124;19.190;2022-12-07T07:34:11;1.40;99.90
46041;DHT22;31779;49.124;19.190;2022-12-07T07:36:39;1.30;99.90
46041;DHT22;31779;49.124;19.190;2022-12-07T07:39:07;1.50;99.90
46041;DHT22;31779;49.124;19.190;2022-12-07T07:41:36;1.50;99.90
46041;DHT22;31779;49.124;19.190;2022-12-07T07:44:04;1.70;99.90
46041;DHT22;31779;49.124;19.190;2022-12-07T07:46:32;1.70;99.90
46041;DHT22;31779;49.124;19.190;2022-12-07T07:49:01;1.80;99.90
46041;DHT22;31779;49.124;19.190;2022-12-07T07:51:28;1.80;99.90
46041;DHT22;31779;49.124;19.190;2022-12-07T07:53:57;1.80;99.90
46041;DHT22;31779;49.124;19.190;2022-12-07T07:56:24;1.80;99.90
46041;DHT22;31779;49.124;19.190;2022-12-07T07:58:52;1.90;99.90
46041;DHT22;31779;49.124;19.190;2022-12-07T08:01:20;1.90;99.90
46041;DHT22;31779;49.124;19.190;2022-12-07T08:03:49;1.70;99.90
46041;DHT22;31779;49.124;19.190;2022-12-07T08:06:17;1.60;99.90
46041;DHT22;31779;49.124;19.190;2022-12-07T08:08:46;1.70;99.90
46041;DHT22;31779;49.124;19.190;2022-12-07T08:11:15;1.70;99.90
46041;DHT22;31779;49.124;19.190;2022-12-07T08:13:47;1.80;99.90
46041;DHT22;31779;49.124;19.190;2022-12-07T08:16:16;1.90;99.90
46041;DHT22;31779;49.124;19.190;2022-12-07T08:18:44;2.00;99.90
46041;DHT22;31779;49.124;19.190;2022-12-07T08:21:15;2.10;99.90
46041;DHT22;31779;49.124;19.190;2022-12-07T08:23:43;2.10;99.90
46041;DHT22;31779;49.124;19.190;2022-12-07T08:26:13;2.10;99.90
46041;DHT22;31779;49.124;19.190;2022-12-07T08:28:43;2.20;99.90
46041;DHT22;31779;49.124;19.190;2022-12-07T08:31:14;2.10;99.90
46041;DHT22;31779;49.124;19.190;2022-12-07T08:33:45;2.10;99.90
46041;DHT22;31779;49.124;19.190;2022-12-07T08:36:14;1.90;99.90
46041;DHT22;31779;49.124;19.190;2022-12-07T08:38:44;1.70;99.90
46041;DHT22;31779;49.124;19.190;2022-12-07T08:41:32;1.70;99.90
46041;DHT22;31779;49.124;19.190;2022-12-07T08:44:00;1.60;99.90
46041;DHT22;31779;49.124;19.190;2022-12-07T08:46:42;1.50;99.90
46041;DHT22;31779;49.124;19.190;2022-12-07T08:49:20;1.60;99.90
46041;DHT22;31779;49.124;19.190;2022-12-07T08:51:50;1.50;99.90
46041;DHT22;31779;49.124;19.190;2022-12-07T08:54:18;1.50;99.90
46041;DHT22;31779;49.124;19.190;2022-12-07T08:56:47;1.50;99.90
46041;DHT22;31779;49.124;19.190;2022-12-07T08:59:25;1.50;99.90
46041;DHT22;31779;49.124;19.190;2022-12-07T09:01:54;1.60;99.90
46041;DHT22;31779;49.124;19.190;2022-12-07T09:04:23;1.70;99.90
46041;DHT22;31779;49.124;19.190;2022-12-07T09:06:50;1.50;99.90
46041;DHT22;31779;49.124;19.190;2022-12-07T09:09:19;1.70;99.90
46041;DHT22;31779;49.124;19.190;2022-12-07T09:11:47;1.70;99.90
46041;DHT22;31779;49.124;19.190;2022-12-07T09:14:15;1.90;99.90
46041;DHT22;31779;49.124;19.190;2022-12-07T09:16:43;2.10;99.90
46041;DHT22;31779;49.124;19.190;2022-12-07T09:19:12;2.30;99.90
46041;DHT22;31779;49.124;19.190;2022-12-07T09:21:40;2.50;99.90
46041;DHT22;31779;49.124;19.190;2022-12-07T09:24:08;2.40;99.90
46041;DHT22;31779;49.124;19.190;2022-12-07T09:26:37;2.40;99.90
46041;DHT22;31779;49.124;19.190;2022-12-07T09:29:08;2.40;99.90
46041;DHT22;31779;49.124;19.190;2022-12-07T09:31:37;2.20;99.90
46041;DHT22;31779;49.124;19.190;2022-12-07T09:34:05;2.20;99.90
46041;DHT22;31779;49.124;19.190;2022-12-07T09:36:34;2.10;99.90
46041;DHT22;31779;49.124;19.190;2022-12-07T09:39:03;2.00;99.90
46041;DHT22;31779;49.124;19.190;2022-12-07T09:41:32;2.00;99.90
46041;DHT22;31779;49.124;19.190;2022-12-07T09:44:11;2.00;99.90
46041;DHT22;31779;49.124;19.190;2022-12-07T09:46:42;2.00;99.90
46041;DHT22;31779;49.124;19.190;2022-12-07T09:49:16;2.10;99.90
46041;DHT22;31779;49.124;19.190;2022-12-07T09:51:45;2.00;99.90
46041;DHT22;31779;49.124;19.190;2022-12-07T09:54:16;2.20;99.90
46041;DHT22;31779;49.124;19.190;2022-12-07T09:56:45;2.30;99.90
46041;DHT22;31779;49.124;19.190;2022-12-07T09:59:17;2.50;99.90
46041;DHT22;31779;49.124;19.190;2022-12-07T10:01:47;2.40;99.90
46041;DHT22;31779;49.124;19.190;2022-12-07T10:04:22;2.30;99.90
46041;DHT22;31779;49.124;19.190;2022-12-07T10:06:51;2.30;99.90
46041;DHT22;31779;49.124;19.190;2022-12-07T10:09:21;2.30;99.90
46041;DHT22;31779;49.124;19.190;2022-12-07T10:12:08;2.30;99.90
46041;DHT22;31779;49.124;19.190;2022-12-07T10:14:39;2.00;99.90
46041;DHT22;31779;49.124;19.190;2022-12-07T10:17:40;1.80;99.90
46041;DHT22;31779;49.124;19.190;2022-12-07T10:23:05;1.80;99.90
46041;DHT22;31779;49.124;19.190;2022-12-07T10:25:35;1.80;99.90
46041;DHT22;31779;49.124;19.190;2022-12-07T10:33:38;1.50;99.90
46041;DHT22;31779;49.124;19.190;2022-12-07T10:39:03;1.60;99.90
46041;DHT22;31779;49.124;19.190;2022-12-07T10:41:31;1.60;99.90
46041;DHT22;31779;49.124;19.190;2022-12-07T10:44:00;1.80;99.90
46041;DHT22;31779;49.124;19.190;2022-12-07T10:46:43;1.90;99.90
46041;DHT22;31779;49.124;19.190;2022-12-07T10:55:06;2.20;99.90
46041;DHT22;31779;49.124;19.190;2022-12-07T11:00:25;2.20;99.90
46041;DHT22;31779;49.124;19.190;2022-12-07T11:05:49;2.20;99.90
46041;DHT22;31779;49.124;19.190;2022-12-07T11:08:33;2.40;99.90
46041;DHT22;31779;49.124;19.190;2022-12-07T11:14:05;2.50;99.90
46041;DHT22;31779;49.124;19.190;2022-12-07T11:16:52;2.20;99.90
46041;DHT22;31779;49.124;19.190;2022-12-07T11:23:31;2.40;99.90
46041;DHT22;31779;49.124;19.190;2022-12-07T11:32:00;2.30;99.90
46041;DHT22;31779;49.124;19.190;2022-12-07T11:37:35;1.90;99.90
46041;DHT22;31779;49.124;19.190;2022-12-07T11:40:17;1.90;99.90
46041;DHT22;31779;49.124;19.190;2022-12-07T11:45:31;2.20;99.90
46041;DHT22;31779;49.124;19.190;2022-12-07T11:48:16;2.40;99.90
46041;DHT22;31779;49.124;19.190;2022-12-07T11:50:51;2.30;99.90
46041;DHT22;31779;49.124;19.190;2022-12-07T12:06:42;2.30;99.90
46041;DHT22;31779;49.124;19.190;2022-12-07T12:09:31;2.10;99.90
46041;DHT22;31779;49.124;19.190;2022-12-07T12:20:40;1.90;99.90
46041;DHT22;31779;49.124;19.190;2022-12-07T12:26:01;1.90;99.90
46041;DHT22;31779;49.124;19.190;2022-12-07T12:28:41;1.80;99.90
46041;DHT22;31779;49.124;19.190;2022-12-07T12:31:32;1.80;99.90
46041;DHT22;31779;49.124;19.190;2022-12-07T12:36:57;1.80;99.90
46041;DHT22;31779;49.124;19.190;2022-12-07T12:39:26;1.60;99.90
46041;DHT22;31779;49.124;19.190;2022-12-07T12:41:55;1.70;99.90
46041;DHT22;31779;49.124;19.190;2022-12-07T12:50:30;1.50;99.90
46041;DHT22;31779;49.124;19.190;2022-12-07T12:53:16;1.50;99.90
46041;DHT22;31779;49.124;19.190;2022-12-07T12:58:32;1.50;99.90
46041;DHT22;31779;49.124;19.190;2022-12-07T13:03:57;1.60;99.90
46041;DHT22;31779;49.124;19.190;2022-12-07T13:08:56;1.70;99.90
46041;DHT22;31779;49.124;19.190;2022-12-07T13:14:40;1.90;99.90
46041;DHT22;31779;49.124;19.190;2022-12-07T13:17:54;1.80;99.90
46041;DHT22;31779;49.124;19.190;2022-12-07T13:20:04;1.80;99.90
46041;DHT22;31779;49.124;19.190;2022-12-07T13:22:43;1.70;99.90
46041;DHT22;31779;49.124;19.190;2022-12-07T13:25:22;1.80;99.90
46041;DHT22;31779;49.124;19.190;2022-12-07T13:28:20;1.80;99.90
46041;DHT22;31779;49.124;19.190;2022-12-07T13:31:04;1.70;99.90
46041;DHT22;31779;49.124;19.190;2022-12-07T13:33:37;1.60;99.90
46041;DHT22;31779;49.124;19.190;2022-12-07T13:36:18;1.70;99.90
46041;DHT22;31779;49.124;19.190;2022-12-07T13:38:54;1.50;99.90
46041;DHT22;31779;49.124;19.190;2022-12-07T13:41:29;1.40;99.90
46041;DHT22;31779;49.124;19.190;2022-12-07T13:44:22;1.50;99.90
46041;DHT22;31779;49.124;19.190;2022-12-07T13:49:48;1.50;99.90
46041;DHT22;31779;49.124;19.190;2022-12-07T13:52:24;1.50;99.90
46041;DHT22;31779;49.124;19.190;2022-12-07T13:55:14;1.30;99.90
46041;DHT22;31779;49.124;19.190;2022-12-07T13:57:44;1.50;99.90
46041;DHT22;31779;49.124;19.190;2022-12-07T14:00:24;1.60;99.90
46041;DHT22;31779;49.124;19.190;2022-12-07T14:05:41;1.40;99.90
46041;DHT22;31779;49.124;19.190;2022-12-07T14:10:54;1.40;99.90
46041;DHT22;31779;49.124;19.190;2022-12-07T14:18:52;1.30;99.90
46041;DHT22;31779;49.124;19.190;2022-12-07T14:21:23;1.20;99.90
46041;DHT22;31779;49.124;19.190;2022-12-07T14:26:44;1.00;99.90
46041;DHT22;31779;49.124;19.190;2022-12-07T14:29:30;1.20;99.90
46041;DHT22;31779;49.124;19.190;2022-12-07T14:32:24;1.10;99.90
46041;DHT22;31779;49.124;19.190;2022-12-07T14:35:17;1.20;99.90
46041;DHT22;31779;49.124;19.190;2022-12-07T14:37:48;1.10;99.90
46041;DHT22;31779;49.124;19.190;2022-12-07T14:40:22;1.00;99.90
46041;DHT22;31779;49.124;19.190;2022-12-07T14:42:54;1.10;99.90
46041;DHT22;31779;49.124;19.190;2022-12-07T14:45:24;1.20;99.90
46041;DHT22;31779;49.124;19.190;2022-12-07T14:47:52;1.10;99.90
46041;DHT22;31779;49.124;19.190;2022-12-07T14:50:50;1.00;99.90
46041;DHT22;31779;49.124;19.190;2022-12-07T14:53:50;1.00;99.90
46041;DHT22;31779;49.124;19.190;2022-12-07T14:56:24;1.00;99.90
46041;DHT22;31779;49.124;19.190;2022-12-07T14:58:52;1.00;99.90
46041;DHT22;31779;49.124;19.190;2022-12-07T15:01:21;0.90;99.90
46041;DHT22;31779;49.124;19.190;2022-12-07T15:03:49;0.90;99.90
46041;DHT22;31779;49.124;19.190;2022-12-07T15:06:18;0.90;99.90
46041;DHT22;31779;49.124;19.190;2022-12-07T15:08:46;1.00;99.90
46041;DHT22;31779;49.124;19.190;2022-12-07T15:11:17;1.00;99.90
46041;DHT22;31779;49.124;19.190;2022-12-07T15:13:45;1.10;99.90
46041;DHT22;31779;49.124;19.190;2022-12-07T15:16:32;1.00;99.90
46041;DHT22;31779;49.124;19.190;2022-12-07T15:19:22;1.00;99.90
46041;DHT22;31779;49.124;19.190;2022-12-07T15:21:56;1.00;99.90
46041;DHT22;31779;49.124;19.190;2022-12-07T15:24:24;0.90;99.90
46041;DHT22;31779;49.124;19.190;2022-12-07T15:26:53;0.90;99.90
46041;DHT22;31779;49.124;19.190;2022-12-07T15:29:22;1.00;99.90
46041;DHT22;31779;49.124;19.190;2022-12-07T15:31:51;1.00;99.90
46041;DHT22;31779;49.124;19.190;2022-12-07T15:34:27;0.80;99.90
46041;DHT22;31779;49.124;19.190;2022-12-07T15:37:07;0.80;99.90
46041;DHT22;31779;49.124;19.190;2022-12-07T15:39:36;0.70;99.90
46041;DHT22;31779;49.124;19.190;2022-12-07T15:42:05;0.60;99.90
46041;DHT22;31779;49.124;19.190;2022-12-07T15:44:33;0.60;99.90
46041;DHT22;31779;49.124;19.190;2022-12-07T15:47:42;0.70;99.90
46041;DHT22;31779;49.124;19.190;2022-12-07T15:50:31;0.70;99.90
46041;DHT22;31779;49.124;19.190;2022-12-07T15:53:01;0.80;99.90
46041;DHT22;31779;49.124;19.190;2022-12-07T15:55:29;0.90;99.90
46041;DHT22;31779;49.124;19.190;2022-12-07T15:57:58;0.80;99.90
46041;DHT22;31779;49.124;19.190;2022-12-07T16:00:26;0.80;99.90
46041;DHT22;31779;49.124;19.190;2022-12-07T16:02:54;0.80;99.90
46041;DHT22;31779;49.124;19.190;2022-12-07T16:05:24;0.90;99.90
46041;DHT22;31779;49.124;19.190;2022-12-07T16:07:51;0.90;99.90
46041;DHT22;31779;49.124;19.190;2022-12-07T16:10:20;1.00;99.90
46041;DHT22;31779;49.124;19.190;2022-12-07T16:12:49;1.00;99.90
46041;DHT22;31779;49.124;19.190;2022-12-07T16:15:17;1.00;99.90
46041;DHT22;31779;49.124;19.190;2022-12-07T16:17:51;1.10;99.90
46041;DHT22;31779;49.124;19.190;2022-12-07T16:20:20;1.00;99.90
46041;DHT22;31779;49.124;19.190;2022-12-07T16:22:51;1.00;99.90
46041;DHT22;31779;49.124;19.190;2022-12-07T16:25:19;1.00;99.90
46041;DHT22;31779;49.124;19.190;2022-12-07T16:27:48;0.90;99.90
46041;DHT22;31779;49.124;19.190;2022-12-07T16:30:16;0.90;99.90
46041;DHT22;31779;49.124;19.190;2022-12-07T16:32:44;0.90;99.90
46041;DHT22;31779;49.124;19.190;2022-12-07T16:35:13;1.00;99.90
46041;DHT22;31779;49.124;19.190;2022-12-07T16:37:42;1.00;99.90
46041;DHT22;31779;49.124;19.190;2022-12-07T16:40:11;1.10;99.90
46041;DHT22;31779;49.124;19.190;2022-12-07T16:42:40;0.90;99.90
46041;DHT22;31779;49.124;19.190;2022-12-07T16:45:08;0.90;99.90
46041;DHT22;31779;49.124;19.190;2022-12-07T16:47:38;0.90;99.90
46041;DHT22;31779;49.124;19.190;2022-12-07T16:50:07;1.00;99.90
46041;DHT22;31779;49.124;19.190;2022-12-07T16:52:36;0.90;99.90
46041;DHT22;31779;49.124;19.190;2022-12-07T16:55:04;1.00;99.90
46041;DHT22;31779;49.124;19.190;2022-12-07T16:57:33;1.00;99.90
46041;DHT22;31779;49.124;19.190;2022-12-07T17:00:01;1.00;99.90
46041;DHT22;31779;49.124;19.190;2022-12-07T17:02:31;0.90;99.90
46041;DHT22;31779;49.124;19.190;2022-12-07T17:05:00;0.90;99.90
46041;DHT22;31779;49.124;19.190;2022-12-07T17:07:29;0.70;99.90
46041;DHT22;31779;49.124;19.190;2022-12-07T17:09:59;0.80;99.90
46041;DHT22;31779;49.124;19.190;2022-12-07T17:12:29;0.90;99.90
46041;DHT22;31779;49.124;19.190;2022-12-07T17:14:58;1.00;99.90
46041;DHT22;31779;49.124;19.190;2022-12-07T17:17:45;0.90;99.90
46041;DHT22;31779;49.124;19.190;2022-12-07T17:20:14;1.00;99.90
46041;DHT22;31779;49.124;19.190;2022-12-07T17:22:45;0.90;99.90
46041;DHT22;31779;49.124;19.190;2022-12-07T17:25:14;1.00;99.90
46041;DHT22;31779;49.124;19.190;2022-12-07T17:27:44;1.00;99.90
46041;DHT22;31779;49.124;19.190;2022-12-07T17:36:41;0.80;99.90
46041;DHT22;31779;49.124;19.190;2022-12-07T17:39:12;0.90;99.90
46041;DHT22;31779;49.124;19.190;2022-12-07T17:41:41;0.80;99.90
46041;DHT22;31779;49.124;19.190;2022-12-07T17:44:31;0.90;99.90
46041;DHT22;31779;49.124;19.190;2022-12-07T17:47:00;0.80;99.90
46041;DHT22;31779;49.124;19.190;2022-12-07T17:49:30;1.00;99.90
46041;DHT22;31779;49.124;19.190;2022-12-07T17:51:59;0.80;99.90
46041;DHT22;31779;49.124;19.190;2022-12-07T17:54:47;0.90;99.90
46041;DHT22;31779;49.124;19.190;2022-12-07T17:57:15;1.00;99.90
46041;DHT22;31779;49.124;19.190;2022-12-07T17:59:43;0.90;99.90
46041;DHT22;31779;49.124;19.190;2022-12-07T18:02:13;0.90;99.90
46041;DHT22;31779;49.124;19.190;2022-12-07T18:04:42;0.90;99.90
46041;DHT22;31779;49.124;19.190;2022-12-07T18:07:11;0.90;99.90
46041;DHT22;31779;49.124;19.190;2022-12-07T18:09:40;1.00;99.90
46041;DHT22;31779;49.124;19.190;2022-12-07T18:12:10;0.90;99.90
46041;DHT22;31779;49.124;19.190;2022-12-07T18:14:40;0.80;99.90
46041;DHT22;31779;49.124;19.190;2022-12-07T18:17:08;0.90;99.90
46041;DHT22;31779;49.124;19.190;2022-12-07T18:19:37;0.90;99.90
46041;DHT22;31779;49.124;19.190;2022-12-07T18:22:05;0.80;99.90
46041;DHT22;31779;49.124;19.190;2022-12-07T18:24:34;0.90;99.90
46041;DHT22;31779;49.124;19.190;2022-12-07T18:27:05;1.00;99.90
46041;DHT22;31779;49.124;19.190;2022-12-07T18:29:33;1.00;99.90
46041;DHT22;31779;49.124;19.190;2022-12-07T18:32:01;0.90;99.90